<?xml version="1.0" encoding="UTF-8" standalone="no" ?>
<gpx xmlns="http://www.topografix.com/GPX/1/1" xmlns:xsi="http://www.w3.org/2001/XMLSchema-instance" xsi:schemaLocation="http://www.topografix.com/GPX/1/1 http://www.topografix.com/GPX/1/1/gpx.xsd" version="1.1" creator="VisuGPX - https://www.visugpx.com">
  <metadata>
    <name>ARQUES LA SEYNE SUR MER 1497 KM</name>
    <desc><![CDATA[Rando de Arques dans le Pas de Calais jusque La Seyne sur Mer dans le Var, 1497 km]]></desc>
  </metadata>
  <trk>
    <name><![CDATA[46 - ST PERAY VOULTE SUR RHONE 23.6 KM]]></name>
    <extensions>
      <line xmlns="http://www.topografix.com/GPX/gpx_style/0/2">
        <color>880000</color>
        <width>4</width>
      </line>
    </extensions>
    <trkseg>
      <trkpt lat="44.94276" lon="4.85949">
        <ele>120</ele>
        <time>2021-12-01T12:30:47+01:00</time>
      </trkpt>
      <trkpt lat="44.94229" lon="4.8594">
        <ele>119</ele>
        <time>2021-12-01T12:30:52+01:00</time>
      </trkpt>
      <trkpt lat="44.94222" lon="4.85807">
        <ele>119</ele>
        <time>2021-12-01T12:30:57+01:00</time>
      </trkpt>
      <trkpt lat="44.94151" lon="4.85829">
        <ele>118</ele>
        <time>2021-12-01T12:31:02+01:00</time>
      </trkpt>
      <trkpt lat="44.94007" lon="4.85794">
        <ele>116</ele>
        <time>2021-12-01T12:31:07+01:00</time>
      </trkpt>
      <trkpt lat="44.93846" lon="4.85849">
        <ele>117</ele>
        <time>2021-12-01T12:31:12+01:00</time>
      </trkpt>
      <trkpt lat="44.93631" lon="4.85873">
        <ele>118</ele>
        <time>2021-12-01T12:31:17+01:00</time>
      </trkpt>
      <trkpt lat="44.93482" lon="4.85866">
        <ele>117</ele>
        <time>2021-12-01T12:31:22+01:00</time>
      </trkpt>
      <trkpt lat="44.93331" lon="4.8596">
        <ele>116</ele>
        <time>2021-12-01T12:31:27+01:00</time>
      </trkpt>
      <trkpt lat="44.93222" lon="4.8597">
        <ele>115</ele>
        <time>2021-12-01T12:31:32+01:00</time>
      </trkpt>
      <trkpt lat="44.93106" lon="4.85929">
        <ele>114</ele>
        <time>2021-12-01T12:31:37+01:00</time>
      </trkpt>
      <trkpt lat="44.92943" lon="4.85943">
        <ele>111</ele>
        <time>2021-12-01T12:31:42+01:00</time>
      </trkpt>
      <trkpt lat="44.9239" lon="4.8599">
        <ele>110</ele>
        <time>2021-12-01T12:31:47+01:00</time>
      </trkpt>
      <trkpt lat="44.92323" lon="4.85936">
        <ele>110</ele>
        <time>2021-12-01T12:31:52+01:00</time>
      </trkpt>
      <trkpt lat="44.92181" lon="4.85996">
        <ele>111</ele>
        <time>2021-12-01T12:31:57+01:00</time>
      </trkpt>
      <trkpt lat="44.92009" lon="4.85936">
        <ele>112</ele>
        <time>2021-12-01T12:32:02+01:00</time>
      </trkpt>
      <trkpt lat="44.91843" lon="4.85899">
        <ele>110</ele>
        <time>2021-12-01T12:32:07+01:00</time>
      </trkpt>
      <trkpt lat="44.91782" lon="4.85809">
        <ele>111</ele>
        <time>2021-12-01T12:32:12+01:00</time>
      </trkpt>
      <trkpt lat="44.91609" lon="4.85702">
        <ele>111</ele>
        <time>2021-12-01T12:32:17+01:00</time>
      </trkpt>
      <trkpt lat="44.91614" lon="4.85385">
        <ele>131</ele>
        <time>2021-12-01T12:32:22+01:00</time>
      </trkpt>
      <trkpt lat="44.91715" lon="4.85228">
        <ele>158</ele>
        <time>2021-12-01T12:32:27+01:00</time>
      </trkpt>
      <trkpt lat="44.91682" lon="4.85164">
        <ele>166</ele>
        <time>2021-12-01T12:32:32+01:00</time>
      </trkpt>
      <trkpt lat="44.91557" lon="4.85261">
        <ele>170</ele>
        <time>2021-12-01T12:32:37+01:00</time>
      </trkpt>
      <trkpt lat="44.91491" lon="4.85215">
        <ele>192</ele>
        <time>2021-12-01T12:32:42+01:00</time>
      </trkpt>
      <trkpt lat="44.91368" lon="4.85158">
        <ele>209</ele>
        <time>2021-12-01T12:32:47+01:00</time>
      </trkpt>
      <trkpt lat="44.91273" lon="4.85191">
        <ele>201</ele>
        <time>2021-12-01T12:32:52+01:00</time>
      </trkpt>
      <trkpt lat="44.91141" lon="4.85141">
        <ele>216</ele>
        <time>2021-12-01T12:32:57+01:00</time>
      </trkpt>
      <trkpt lat="44.91025" lon="4.84924">
        <ele>246</ele>
        <time>2021-12-01T12:33:02+01:00</time>
      </trkpt>
      <trkpt lat="44.90944" lon="4.84867">
        <ele>247</ele>
        <time>2021-12-01T12:33:07+01:00</time>
      </trkpt>
      <trkpt lat="44.90871" lon="4.84727">
        <ele>258</ele>
        <time>2021-12-01T12:33:12+01:00</time>
      </trkpt>
      <trkpt lat="44.90743" lon="4.8452">
        <ele>267</ele>
        <time>2021-12-01T12:33:17+01:00</time>
      </trkpt>
      <trkpt lat="44.90665" lon="4.84369">
        <ele>271</ele>
        <time>2021-12-01T12:33:22+01:00</time>
      </trkpt>
      <trkpt lat="44.90639" lon="4.84219">
        <ele>270</ele>
        <time>2021-12-01T12:33:27+01:00</time>
      </trkpt>
      <trkpt lat="44.9062" lon="4.84049">
        <ele>275</ele>
        <time>2021-12-01T12:33:32+01:00</time>
      </trkpt>
      <trkpt lat="44.90525" lon="4.83798">
        <ele>278</ele>
        <time>2021-12-01T12:33:37+01:00</time>
      </trkpt>
      <trkpt lat="44.90443" lon="4.83541">
        <ele>267</ele>
        <time>2021-12-01T12:33:42+01:00</time>
      </trkpt>
      <trkpt lat="44.90386" lon="4.83341">
        <ele>249</ele>
        <time>2021-12-01T12:33:47+01:00</time>
      </trkpt>
      <trkpt lat="44.90369" lon="4.83267">
        <ele>240</ele>
        <time>2021-12-01T12:33:52+01:00</time>
      </trkpt>
      <trkpt lat="44.90272" lon="4.83177">
        <ele>230</ele>
        <time>2021-12-01T12:33:57+01:00</time>
      </trkpt>
      <trkpt lat="44.90237" lon="4.83087">
        <ele>224</ele>
        <time>2021-12-01T12:34:02+01:00</time>
      </trkpt>
      <trkpt lat="44.9014" lon="4.8298">
        <ele>217</ele>
        <time>2021-12-01T12:34:07+01:00</time>
      </trkpt>
      <trkpt lat="44.90078" lon="4.82839">
        <ele>211</ele>
        <time>2021-12-01T12:34:12+01:00</time>
      </trkpt>
      <trkpt lat="44.89856" lon="4.82646">
        <ele>206</ele>
        <time>2021-12-01T12:34:17+01:00</time>
      </trkpt>
      <trkpt lat="44.89818" lon="4.82579">
        <ele>206</ele>
        <time>2021-12-01T12:34:22+01:00</time>
      </trkpt>
      <trkpt lat="44.89801" lon="4.82315">
        <ele>210</ele>
        <time>2021-12-01T12:34:27+01:00</time>
      </trkpt>
      <trkpt lat="44.89754" lon="4.82181">
        <ele>215</ele>
        <time>2021-12-01T12:34:32+01:00</time>
      </trkpt>
      <trkpt lat="44.89766" lon="4.82031">
        <ele>222</ele>
        <time>2021-12-01T12:34:37+01:00</time>
      </trkpt>
      <trkpt lat="44.89707" lon="4.82001">
        <ele>225</ele>
        <time>2021-12-01T12:34:42+01:00</time>
      </trkpt>
      <trkpt lat="44.89688" lon="4.81924">
        <ele>235</ele>
        <time>2021-12-01T12:34:47+01:00</time>
      </trkpt>
      <trkpt lat="44.89652" lon="4.81894">
        <ele>244</ele>
        <time>2021-12-01T12:34:52+01:00</time>
      </trkpt>
      <trkpt lat="44.89709" lon="4.81814">
        <ele>256</ele>
        <time>2021-12-01T12:34:57+01:00</time>
      </trkpt>
      <trkpt lat="44.8974" lon="4.81737">
        <ele>264</ele>
        <time>2021-12-01T12:35:02+01:00</time>
      </trkpt>
      <trkpt lat="44.89773" lon="4.81656">
        <ele>264</ele>
        <time>2021-12-01T12:35:07+01:00</time>
      </trkpt>
      <trkpt lat="44.89765" lon="4.81613">
        <ele>264</ele>
        <time>2021-12-01T12:35:12+01:00</time>
      </trkpt>
      <trkpt lat="44.89726" lon="4.81608">
        <ele>273</ele>
        <time>2021-12-01T12:35:17+01:00</time>
      </trkpt>
      <trkpt lat="44.89665" lon="4.81606">
        <ele>285</ele>
        <time>2021-12-01T12:35:22+01:00</time>
      </trkpt>
      <trkpt lat="44.89668" lon="4.81553">
        <ele>287</ele>
        <time>2021-12-01T12:35:27+01:00</time>
      </trkpt>
      <trkpt lat="44.89672" lon="4.81496">
        <ele>287</ele>
        <time>2021-12-01T12:35:32+01:00</time>
      </trkpt>
      <trkpt lat="44.89648" lon="4.81447">
        <ele>290</ele>
        <time>2021-12-01T12:35:37+01:00</time>
      </trkpt>
      <trkpt lat="44.89627" lon="4.81377">
        <ele>294</ele>
        <time>2021-12-01T12:35:42+01:00</time>
      </trkpt>
      <trkpt lat="44.89567" lon="4.81339">
        <ele>314</ele>
        <time>2021-12-01T12:35:47+01:00</time>
      </trkpt>
      <trkpt lat="44.89548" lon="4.81249">
        <ele>318</ele>
        <time>2021-12-01T12:35:52+01:00</time>
      </trkpt>
      <trkpt lat="44.89375" lon="4.8098">
        <ele>337</ele>
        <time>2021-12-01T12:35:57+01:00</time>
      </trkpt>
      <trkpt lat="44.89349" lon="4.80852">
        <ele>349</ele>
        <time>2021-12-01T12:36:02+01:00</time>
      </trkpt>
      <trkpt lat="44.89262" lon="4.80682">
        <ele>368</ele>
        <time>2021-12-01T12:36:07+01:00</time>
      </trkpt>
      <trkpt lat="44.89246" lon="4.80561">
        <ele>374</ele>
        <time>2021-12-01T12:36:12+01:00</time>
      </trkpt>
      <trkpt lat="44.89215" lon="4.80453">
        <ele>380</ele>
        <time>2021-12-01T12:36:17+01:00</time>
      </trkpt>
      <trkpt lat="44.89216" lon="4.80381">
        <ele>373</ele>
        <time>2021-12-01T12:36:22+01:00</time>
      </trkpt>
      <trkpt lat="44.89157" lon="4.80282">
        <ele>378</ele>
        <time>2021-12-01T12:36:27+01:00</time>
      </trkpt>
      <trkpt lat="44.89113" lon="4.80263">
        <ele>390</ele>
        <time>2021-12-01T12:36:32+01:00</time>
      </trkpt>
      <trkpt lat="44.89087" lon="4.80175">
        <ele>393</ele>
        <time>2021-12-01T12:36:37+01:00</time>
      </trkpt>
      <trkpt lat="44.89114" lon="4.79946">
        <ele>380</ele>
        <time>2021-12-01T12:36:42+01:00</time>
      </trkpt>
      <trkpt lat="44.89121" lon="4.79859">
        <ele>373</ele>
        <time>2021-12-01T12:36:47+01:00</time>
      </trkpt>
      <trkpt lat="44.89093" lon="4.79745">
        <ele>364</ele>
        <time>2021-12-01T12:36:52+01:00</time>
      </trkpt>
      <trkpt lat="44.89021" lon="4.79545">
        <ele>363</ele>
        <time>2021-12-01T12:36:57+01:00</time>
      </trkpt>
      <trkpt lat="44.88945" lon="4.79432">
        <ele>356</ele>
        <time>2021-12-01T12:37:02+01:00</time>
      </trkpt>
      <trkpt lat="44.88881" lon="4.79306">
        <ele>356</ele>
        <time>2021-12-01T12:37:07+01:00</time>
      </trkpt>
      <trkpt lat="44.8883" lon="4.79259">
        <ele>347</ele>
        <time>2021-12-01T12:37:12+01:00</time>
      </trkpt>
      <trkpt lat="44.88776" lon="4.79156">
        <ele>345</ele>
        <time>2021-12-01T12:37:17+01:00</time>
      </trkpt>
      <trkpt lat="44.88778" lon="4.79127">
        <ele>347</ele>
        <time>2021-12-01T12:37:22+01:00</time>
      </trkpt>
      <trkpt lat="44.88745" lon="4.79107">
        <ele>342</ele>
        <time>2021-12-01T12:37:27+01:00</time>
      </trkpt>
      <trkpt lat="44.88699" lon="4.79043">
        <ele>343</ele>
        <time>2021-12-01T12:37:32+01:00</time>
      </trkpt>
      <trkpt lat="44.88658" lon="4.789">
        <ele>344</ele>
        <time>2021-12-01T12:37:37+01:00</time>
      </trkpt>
      <trkpt lat="44.88655" lon="4.78763">
        <ele>353</ele>
        <time>2021-12-01T12:37:42+01:00</time>
      </trkpt>
      <trkpt lat="44.88547" lon="4.78566">
        <ele>354</ele>
        <time>2021-12-01T12:37:47+01:00</time>
      </trkpt>
      <trkpt lat="44.88499" lon="4.78517">
        <ele>348</ele>
        <time>2021-12-01T12:37:52+01:00</time>
      </trkpt>
      <trkpt lat="44.88463" lon="4.7844">
        <ele>353</ele>
        <time>2021-12-01T12:37:57+01:00</time>
      </trkpt>
      <trkpt lat="44.88366" lon="4.78455">
        <ele>354</ele>
        <time>2021-12-01T12:38:02+01:00</time>
      </trkpt>
      <trkpt lat="44.88372" lon="4.78497">
        <ele>355</ele>
        <time>2021-12-01T12:38:07+01:00</time>
      </trkpt>
      <trkpt lat="44.88465" lon="4.786">
        <ele>357</ele>
        <time>2021-12-01T12:38:12+01:00</time>
      </trkpt>
      <trkpt lat="44.88447" lon="4.78626">
        <ele>366</ele>
        <time>2021-12-01T12:38:17+01:00</time>
      </trkpt>
      <trkpt lat="44.88355" lon="4.78503">
        <ele>357</ele>
        <time>2021-12-01T12:38:22+01:00</time>
      </trkpt>
      <trkpt lat="44.8824" lon="4.78546">
        <ele>378</ele>
        <time>2021-12-01T12:38:27+01:00</time>
      </trkpt>
      <trkpt lat="44.88211" lon="4.78488">
        <ele>371</ele>
        <time>2021-12-01T12:38:32+01:00</time>
      </trkpt>
      <trkpt lat="44.88127" lon="4.78448">
        <ele>385</ele>
        <time>2021-12-01T12:38:37+01:00</time>
      </trkpt>
      <trkpt lat="44.8812" lon="4.7839">
        <ele>381</ele>
        <time>2021-12-01T12:38:42+01:00</time>
      </trkpt>
      <trkpt lat="44.88049" lon="4.78299">
        <ele>389</ele>
        <time>2021-12-01T12:38:47+01:00</time>
      </trkpt>
      <trkpt lat="44.87928" lon="4.78232">
        <ele>409</ele>
        <time>2021-12-01T12:38:52+01:00</time>
      </trkpt>
      <trkpt lat="44.8797" lon="4.78154">
        <ele>396</ele>
        <time>2021-12-01T12:38:57+01:00</time>
      </trkpt>
      <trkpt lat="44.87904" lon="4.7806">
        <ele>406</ele>
        <time>2021-12-01T12:39:02+01:00</time>
      </trkpt>
      <trkpt lat="44.87862" lon="4.78015">
        <ele>413</ele>
        <time>2021-12-01T12:39:07+01:00</time>
      </trkpt>
      <trkpt lat="44.87864" lon="4.77952">
        <ele>406</ele>
        <time>2021-12-01T12:39:12+01:00</time>
      </trkpt>
      <trkpt lat="44.87827" lon="4.77927">
        <ele>414</ele>
        <time>2021-12-01T12:39:17+01:00</time>
      </trkpt>
      <trkpt lat="44.87784" lon="4.77842">
        <ele>419</ele>
        <time>2021-12-01T12:39:22+01:00</time>
      </trkpt>
      <trkpt lat="44.87796" lon="4.77794">
        <ele>412</ele>
        <time>2021-12-01T12:39:27+01:00</time>
      </trkpt>
      <trkpt lat="44.87754" lon="4.77754">
        <ele>423</ele>
        <time>2021-12-01T12:39:32+01:00</time>
      </trkpt>
      <trkpt lat="44.87747" lon="4.77568">
        <ele>421</ele>
        <time>2021-12-01T12:39:37+01:00</time>
      </trkpt>
      <trkpt lat="44.87676" lon="4.77483">
        <ele>423</ele>
        <time>2021-12-01T12:39:42+01:00</time>
      </trkpt>
      <trkpt lat="44.87648" lon="4.77564">
        <ele>426</ele>
        <time>2021-12-01T12:39:47+01:00</time>
      </trkpt>
      <trkpt lat="44.8761" lon="4.77642">
        <ele>431</ele>
        <time>2021-12-01T12:39:52+01:00</time>
      </trkpt>
      <trkpt lat="44.87536" lon="4.77564">
        <ele>416</ele>
        <time>2021-12-01T12:39:57+01:00</time>
      </trkpt>
      <trkpt lat="44.87478" lon="4.77514">
        <ele>406</ele>
        <time>2021-12-01T12:40:02+01:00</time>
      </trkpt>
      <trkpt lat="44.87407" lon="4.77504">
        <ele>396</ele>
        <time>2021-12-01T12:40:07+01:00</time>
      </trkpt>
      <trkpt lat="44.87359" lon="4.77534">
        <ele>384</ele>
        <time>2021-12-01T12:40:12+01:00</time>
      </trkpt>
      <trkpt lat="44.8733" lon="4.77571">
        <ele>379</ele>
        <time>2021-12-01T12:40:17+01:00</time>
      </trkpt>
      <trkpt lat="44.87243" lon="4.77617">
        <ele>369</ele>
        <time>2021-12-01T12:40:22+01:00</time>
      </trkpt>
      <trkpt lat="44.87266" lon="4.77539">
        <ele>369</ele>
        <time>2021-12-01T12:40:27+01:00</time>
      </trkpt>
      <trkpt lat="44.87192" lon="4.77554">
        <ele>367</ele>
        <time>2021-12-01T12:40:32+01:00</time>
      </trkpt>
      <trkpt lat="44.87182" lon="4.77473">
        <ele>385</ele>
        <time>2021-12-01T12:40:37+01:00</time>
      </trkpt>
      <trkpt lat="44.87095" lon="4.77435">
        <ele>409</ele>
        <time>2021-12-01T12:40:42+01:00</time>
      </trkpt>
      <trkpt lat="44.86976" lon="4.77426">
        <ele>427</ele>
        <time>2021-12-01T12:40:47+01:00</time>
      </trkpt>
      <trkpt lat="44.86905" lon="4.77355">
        <ele>438</ele>
        <time>2021-12-01T12:40:52+01:00</time>
      </trkpt>
      <trkpt lat="44.8695" lon="4.7729">
        <ele>446</ele>
        <time>2021-12-01T12:40:57+01:00</time>
      </trkpt>
      <trkpt lat="44.86902" lon="4.77167">
        <ele>444</ele>
        <time>2021-12-01T12:41:02+01:00</time>
      </trkpt>
      <trkpt lat="44.86839" lon="4.76953">
        <ele>442</ele>
        <time>2021-12-01T12:41:07+01:00</time>
      </trkpt>
      <trkpt lat="44.86839" lon="4.76891">
        <ele>440</ele>
        <time>2021-12-01T12:41:12+01:00</time>
      </trkpt>
      <trkpt lat="44.86809" lon="4.76735">
        <ele>430</ele>
        <time>2021-12-01T12:41:17+01:00</time>
      </trkpt>
      <trkpt lat="44.86789" lon="4.76532">
        <ele>453</ele>
        <time>2021-12-01T12:41:22+01:00</time>
      </trkpt>
      <trkpt lat="44.86755" lon="4.76489">
        <ele>454</ele>
        <time>2021-12-01T12:41:27+01:00</time>
      </trkpt>
      <trkpt lat="44.86723" lon="4.76371">
        <ele>467</ele>
        <time>2021-12-01T12:41:32+01:00</time>
      </trkpt>
      <trkpt lat="44.86736" lon="4.76348">
        <ele>468</ele>
        <time>2021-12-01T12:41:37+01:00</time>
      </trkpt>
      <trkpt lat="44.86774" lon="4.76371">
        <ele>465</ele>
        <time>2021-12-01T12:41:42+01:00</time>
      </trkpt>
      <trkpt lat="44.86763" lon="4.76339">
        <ele>467</ele>
        <time>2021-12-01T12:41:47+01:00</time>
      </trkpt>
      <trkpt lat="44.86707" lon="4.76241">
        <ele>471</ele>
        <time>2021-12-01T12:41:52+01:00</time>
      </trkpt>
      <trkpt lat="44.86664" lon="4.76216">
        <ele>478</ele>
        <time>2021-12-01T12:41:57+01:00</time>
      </trkpt>
      <trkpt lat="44.86606" lon="4.76088">
        <ele>491</ele>
        <time>2021-12-01T12:42:02+01:00</time>
      </trkpt>
      <trkpt lat="44.86551" lon="4.76085">
        <ele>493</ele>
        <time>2021-12-01T12:42:07+01:00</time>
      </trkpt>
      <trkpt lat="44.86517" lon="4.76005">
        <ele>502</ele>
        <time>2021-12-01T12:42:12+01:00</time>
      </trkpt>
      <trkpt lat="44.86472" lon="4.75942">
        <ele>501</ele>
        <time>2021-12-01T12:42:17+01:00</time>
      </trkpt>
      <trkpt lat="44.86411" lon="4.757">
        <ele>516</ele>
        <time>2021-12-01T12:42:22+01:00</time>
      </trkpt>
      <trkpt lat="44.86349" lon="4.75603">
        <ele>529</ele>
        <time>2021-12-01T12:42:27+01:00</time>
      </trkpt>
      <trkpt lat="44.86312" lon="4.75643">
        <ele>529</ele>
        <time>2021-12-01T12:42:32+01:00</time>
      </trkpt>
      <trkpt lat="44.86255" lon="4.7563">
        <ele>530</ele>
        <time>2021-12-01T12:42:37+01:00</time>
      </trkpt>
      <trkpt lat="44.86187" lon="4.75532">
        <ele>537</ele>
        <time>2021-12-01T12:42:42+01:00</time>
      </trkpt>
      <trkpt lat="44.86056" lon="4.75435">
        <ele>532</ele>
        <time>2021-12-01T12:42:47+01:00</time>
      </trkpt>
      <trkpt lat="44.85994" lon="4.75324">
        <ele>543</ele>
        <time>2021-12-01T12:42:52+01:00</time>
      </trkpt>
      <trkpt lat="44.85919" lon="4.75262">
        <ele>546</ele>
        <time>2021-12-01T12:42:57+01:00</time>
      </trkpt>
      <trkpt lat="44.85824" lon="4.75223">
        <ele>549</ele>
        <time>2021-12-01T12:43:02+01:00</time>
      </trkpt>
      <trkpt lat="44.85805" lon="4.75336">
        <ele>538</ele>
        <time>2021-12-01T12:43:07+01:00</time>
      </trkpt>
      <trkpt lat="44.85811" lon="4.75422">
        <ele>536</ele>
        <time>2021-12-01T12:43:12+01:00</time>
      </trkpt>
      <trkpt lat="44.85778" lon="4.75484">
        <ele>538</ele>
        <time>2021-12-01T12:43:17+01:00</time>
      </trkpt>
      <trkpt lat="44.85764" lon="4.75522">
        <ele>543</ele>
        <time>2021-12-01T12:43:22+01:00</time>
      </trkpt>
      <trkpt lat="44.85778" lon="4.75625">
        <ele>548</ele>
        <time>2021-12-01T12:43:27+01:00</time>
      </trkpt>
      <trkpt lat="44.85749" lon="4.75696">
        <ele>555</ele>
        <time>2021-12-01T12:43:32+01:00</time>
      </trkpt>
      <trkpt lat="44.85649" lon="4.75781">
        <ele>571</ele>
        <time>2021-12-01T12:43:37+01:00</time>
      </trkpt>
      <trkpt lat="44.85629" lon="4.75881">
        <ele>578</ele>
        <time>2021-12-01T12:43:42+01:00</time>
      </trkpt>
      <trkpt lat="44.85595" lon="4.75922">
        <ele>586</ele>
        <time>2021-12-01T12:43:47+01:00</time>
      </trkpt>
      <trkpt lat="44.85556" lon="4.75929">
        <ele>583</ele>
        <time>2021-12-01T12:43:52+01:00</time>
      </trkpt>
      <trkpt lat="44.85504" lon="4.76044">
        <ele>583</ele>
        <time>2021-12-01T12:43:57+01:00</time>
      </trkpt>
      <trkpt lat="44.85451" lon="4.76127">
        <ele>579</ele>
        <time>2021-12-01T12:44:02+01:00</time>
      </trkpt>
      <trkpt lat="44.85388" lon="4.76248">
        <ele>583</ele>
        <time>2021-12-01T12:44:07+01:00</time>
      </trkpt>
      <trkpt lat="44.85308" lon="4.7629">
        <ele>571</ele>
        <time>2021-12-01T12:44:12+01:00</time>
      </trkpt>
      <trkpt lat="44.85247" lon="4.76336">
        <ele>564</ele>
        <time>2021-12-01T12:44:17+01:00</time>
      </trkpt>
      <trkpt lat="44.85198" lon="4.76399">
        <ele>555</ele>
        <time>2021-12-01T12:44:22+01:00</time>
      </trkpt>
      <trkpt lat="44.85143" lon="4.76457">
        <ele>545</ele>
        <time>2021-12-01T12:44:27+01:00</time>
      </trkpt>
      <trkpt lat="44.85012" lon="4.76495">
        <ele>536</ele>
        <time>2021-12-01T12:44:32+01:00</time>
      </trkpt>
      <trkpt lat="44.84933" lon="4.76483">
        <ele>531</ele>
        <time>2021-12-01T12:44:37+01:00</time>
      </trkpt>
      <trkpt lat="44.8481" lon="4.76377">
        <ele>508</ele>
        <time>2021-12-01T12:44:42+01:00</time>
      </trkpt>
      <trkpt lat="44.84716" lon="4.76321">
        <ele>494</ele>
        <time>2021-12-01T12:44:47+01:00</time>
      </trkpt>
      <trkpt lat="44.84656" lon="4.76248">
        <ele>476</ele>
        <time>2021-12-01T12:44:52+01:00</time>
      </trkpt>
      <trkpt lat="44.8461" lon="4.76186">
        <ele>463</ele>
        <time>2021-12-01T12:44:57+01:00</time>
      </trkpt>
      <trkpt lat="44.84581" lon="4.76092">
        <ele>454</ele>
        <time>2021-12-01T12:45:02+01:00</time>
      </trkpt>
      <trkpt lat="44.84518" lon="4.7606">
        <ele>449</ele>
        <time>2021-12-01T12:45:07+01:00</time>
      </trkpt>
      <trkpt lat="44.84499" lon="4.76114">
        <ele>447</ele>
        <time>2021-12-01T12:45:12+01:00</time>
      </trkpt>
      <trkpt lat="44.84465" lon="4.76078">
        <ele>446</ele>
        <time>2021-12-01T12:45:17+01:00</time>
      </trkpt>
      <trkpt lat="44.84381" lon="4.76055">
        <ele>435</ele>
        <time>2021-12-01T12:45:22+01:00</time>
      </trkpt>
      <trkpt lat="44.84339" lon="4.76027">
        <ele>430</ele>
        <time>2021-12-01T12:45:27+01:00</time>
      </trkpt>
      <trkpt lat="44.84262" lon="4.75985">
        <ele>419</ele>
        <time>2021-12-01T12:45:32+01:00</time>
      </trkpt>
      <trkpt lat="44.84155" lon="4.75989">
        <ele>411</ele>
        <time>2021-12-01T12:45:37+01:00</time>
      </trkpt>
      <trkpt lat="44.84035" lon="4.76001">
        <ele>400</ele>
        <time>2021-12-01T12:45:42+01:00</time>
      </trkpt>
      <trkpt lat="44.83907" lon="4.76015">
        <ele>379</ele>
        <time>2021-12-01T12:45:47+01:00</time>
      </trkpt>
      <trkpt lat="44.83839" lon="4.76065">
        <ele>359</ele>
        <time>2021-12-01T12:45:52+01:00</time>
      </trkpt>
      <trkpt lat="44.83768" lon="4.76082">
        <ele>344</ele>
        <time>2021-12-01T12:45:57+01:00</time>
      </trkpt>
      <trkpt lat="44.83723" lon="4.76092">
        <ele>332</ele>
        <time>2021-12-01T12:46:02+01:00</time>
      </trkpt>
      <trkpt lat="44.83656" lon="4.76061">
        <ele>321</ele>
        <time>2021-12-01T12:46:07+01:00</time>
      </trkpt>
      <trkpt lat="44.83581" lon="4.76029">
        <ele>306</ele>
        <time>2021-12-01T12:46:12+01:00</time>
      </trkpt>
      <trkpt lat="44.83528" lon="4.75995">
        <ele>299</ele>
        <time>2021-12-01T12:46:17+01:00</time>
      </trkpt>
      <trkpt lat="44.8347" lon="4.75972">
        <ele>283</ele>
        <time>2021-12-01T12:46:22+01:00</time>
      </trkpt>
      <trkpt lat="44.83425" lon="4.75966">
        <ele>271</ele>
        <time>2021-12-01T12:46:27+01:00</time>
      </trkpt>
      <trkpt lat="44.83397" lon="4.75952">
        <ele>261</ele>
        <time>2021-12-01T12:46:32+01:00</time>
      </trkpt>
      <trkpt lat="44.8338" lon="4.75969">
        <ele>257</ele>
        <time>2021-12-01T12:46:37+01:00</time>
      </trkpt>
      <trkpt lat="44.83341" lon="4.75991">
        <ele>245</ele>
        <time>2021-12-01T12:46:42+01:00</time>
      </trkpt>
      <trkpt lat="44.83293" lon="4.75984">
        <ele>228</ele>
        <time>2021-12-01T12:46:47+01:00</time>
      </trkpt>
      <trkpt lat="44.83256" lon="4.75996">
        <ele>217</ele>
        <time>2021-12-01T12:46:52+01:00</time>
      </trkpt>
      <trkpt lat="44.83254" lon="4.7604">
        <ele>212</ele>
        <time>2021-12-01T12:46:57+01:00</time>
      </trkpt>
      <trkpt lat="44.83303" lon="4.76096">
        <ele>224</ele>
        <time>2021-12-01T12:47:02+01:00</time>
      </trkpt>
      <trkpt lat="44.83261" lon="4.76136">
        <ele>215</ele>
        <time>2021-12-01T12:47:07+01:00</time>
      </trkpt>
      <trkpt lat="44.83199" lon="4.76153">
        <ele>199</ele>
        <time>2021-12-01T12:47:12+01:00</time>
      </trkpt>
      <trkpt lat="44.83103" lon="4.76155">
        <ele>173</ele>
        <time>2021-12-01T12:47:17+01:00</time>
      </trkpt>
      <trkpt lat="44.83109" lon="4.76275">
        <ele>176</ele>
        <time>2021-12-01T12:47:22+01:00</time>
      </trkpt>
      <trkpt lat="44.83035" lon="4.76279">
        <ele>165</ele>
        <time>2021-12-01T12:47:27+01:00</time>
      </trkpt>
      <trkpt lat="44.82942" lon="4.76361">
        <ele>159</ele>
        <time>2021-12-01T12:47:32+01:00</time>
      </trkpt>
      <trkpt lat="44.82788" lon="4.76361">
        <ele>138</ele>
        <time>2021-12-01T12:47:37+01:00</time>
      </trkpt>
      <trkpt lat="44.82709" lon="4.76417">
        <ele>132</ele>
        <time>2021-12-01T12:47:42+01:00</time>
      </trkpt>
      <trkpt lat="44.82635" lon="4.76429">
        <ele>127</ele>
        <time>2021-12-01T12:47:47+01:00</time>
      </trkpt>
      <trkpt lat="44.82516" lon="4.76481">
        <ele>121</ele>
        <time>2021-12-01T12:47:52+01:00</time>
      </trkpt>
      <trkpt lat="44.82253" lon="4.76614">
        <ele>109</ele>
        <time>2021-12-01T12:47:57+01:00</time>
      </trkpt>
      <trkpt lat="44.82222" lon="4.7661">
        <ele>107</ele>
        <time>2021-12-01T12:48:02+01:00</time>
      </trkpt>
      <trkpt lat="44.8207" lon="4.76657">
        <ele>118</ele>
        <time>2021-12-01T12:48:07+01:00</time>
      </trkpt>
      <trkpt lat="44.82161" lon="4.77056">
        <ele>112</ele>
        <time>2021-12-01T12:48:12+01:00</time>
      </trkpt>
      <trkpt lat="44.82173" lon="4.77286">
        <ele>122</ele>
        <time>2021-12-01T12:48:17+01:00</time>
      </trkpt>
      <trkpt lat="44.82166" lon="4.77505">
        <ele>130</ele>
        <time>2021-12-01T12:48:22+01:00</time>
      </trkpt>
      <trkpt lat="44.82183" lon="4.77674">
        <ele>129</ele>
        <time>2021-12-01T12:48:27+01:00</time>
      </trkpt>
      <trkpt lat="44.82221" lon="4.77882">
        <ele>124</ele>
        <time>2021-12-01T12:48:32+01:00</time>
      </trkpt>
      <trkpt lat="44.82204" lon="4.78103">
        <ele>123</ele>
        <time>2021-12-01T12:48:37+01:00</time>
      </trkpt>
      <trkpt lat="44.82157" lon="4.78243">
        <ele>118</ele>
        <time>2021-12-01T12:48:42+01:00</time>
      </trkpt>
      <trkpt lat="44.82021" lon="4.7836">
        <ele>118</ele>
        <time>2021-12-01T12:48:47+01:00</time>
      </trkpt>
      <trkpt lat="44.81794" lon="4.78632">
        <ele>112</ele>
        <time>2021-12-01T12:48:52+01:00</time>
      </trkpt>
      <trkpt lat="44.81716" lon="4.78702">
        <ele>113</ele>
        <time>2021-12-01T12:48:57+01:00</time>
      </trkpt>
      <trkpt lat="44.81697" lon="4.78656">
        <ele>116</ele>
        <time>2021-12-01T12:49:02+01:00</time>
      </trkpt>
      <trkpt lat="44.81687" lon="4.78616">
        <ele>121</ele>
        <time>2021-12-01T12:49:07+01:00</time>
      </trkpt>
      <trkpt lat="44.81715" lon="4.78548">
        <ele>123</ele>
        <time>2021-12-01T12:49:12+01:00</time>
      </trkpt>
    </trkseg>
  </trk>
</gpx>